Time;durP1;ratioP1;P1;durP2;ratioP2;P2;SDS_P1;SDS_P2;PMS_P1;PMS_P2;Temp;Humidity;BMP_temperature;BMP_pressure;BME280_temperature;BME280_humidity;BME280_pressure;Samples;Min_cycle;Max_cycle;Signal;HPM_P1;HPM_P2
2023/12/21 00:00:41;;;;;;;;;;;;;;;23.01;34.05;101319.94;4234050;28;19923;-64
2023/12/21 00:02:42;;;;;;;;;;;;;;;22.97;33.81;101305.94;4234099;28;19999;-64
2023/12/21 00:04:44;;;;;;;;;;;;;;;22.95;33.92;101307.88;4233740;28;19919;-64
2023/12/21 00:06:45;;;;;;;;;;;;;;;22.95;34.10;101306.06;4233565;28;20010;-64
2023/12/21 00:08:47;;;;;;;;;;;;;;;22.99;33.96;101312.03;4233882;28;19923;-64
2023/12/21 00:10:48;;;;;;;;;;;;;;;23.01;33.62;101311.91;4233840;28;20279;-64
2023/12/21 00:12:50;;;;;;;;;;;;;;;23.03;33.86;101296.56;4233938;28;20011;-64
2023/12/21 00:14:51;;;;;;;;;;;;;;;23.05;33.73;101287.41;4233717;28;19991;-64
2023/12/21 00:16:53;;;;;;;;;;;;;;;23.05;33.63;101275.78;4233485;28;19930;-64
2023/12/21 00:18:54;;;;;;;;;;;;;;;23.05;33.77;101294.56;4233519;28;19926;-63
2023/12/21 00:20:56;;;;;;;;;;;;;;;23.05;33.90;101299.94;4233008;28;20056;-64
2023/12/21 00:22:57;;;;;;;;;;;;;;;23.05;33.71;101281.16;4232404;28;19919;-63
2023/12/21 00:24:59;;;;;;;;;;;;;;;23.03;33.72;101269.72;4233232;28;19920;-64
2023/12/21 00:27:00;;;;;;;;;;;;;;;23.01;34.14;101272.50;4233566;28;19919;-64
2023/12/21 00:29:08;;;;;;;;;;;;;;;23.01;33.91;101272.50;4233536;28;19920;-63
2023/12/21 00:31:09;;;;;;;;;;;;;;;23.03;34.30;101272.41;4233517;28;20406;-63
2023/12/21 00:33:11;;;;;;;;;;;;;;;23.05;33.94;101263.25;4233474;28;20390;-63
2023/12/21 00:35:12;;;;;;;;;;;;;;;23.08;33.78;101272.88;4233150;28;19966;-63
2023/12/21 00:37:14;;;;;;;;;;;;;;;23.09;33.83;101272.75;4233466;28;20026;-64
2023/12/21 00:39:15;;;;;;;;;;;;;;;23.10;33.92;101261.06;4233500;28;19945;-64
2023/12/21 00:41:22;;;;;;;;;;;;;;;23.09;33.96;101259.34;4233403;27;20014;-63
2023/12/21 00:43:23;;;;;;;;;;;;;;;23.08;33.75;101243.38;4233186;28;19920;-63
2023/12/21 00:45:25;;;;;;;;;;;;;;;23.07;33.95;101245.19;4233204;28;20432;-64
2023/12/21 00:47:26;;;;;;;;;;;;;;;23.05;33.92;101241.78;4233234;28;19930;-63
2023/12/21 00:49:28;;;;;;;;;;;;;;;23.04;34.02;101253.50;4232947;28;19965;-64
2023/12/21 00:51:30;;;;;;;;;;;;;;;23.06;34.21;101256.91;4233063;28;19924;-63
2023/12/21 00:53:31;;;;;;;;;;;;;;;23.06;34.19;101240.81;4233175;28;19931;-64
2023/12/21 00:55:33;;;;;;;;;;;;;;;23.10;33.99;101230.69;4231620;28;19959;-64
2023/12/21 00:57:35;;;;;;;;;;;;;;;23.12;33.89;101236.78;4233149;28;19962;-64
2023/12/21 00:59:36;;;;;;;;;;;;;;;23.13;33.92;101235.78;4233026;28;19919;-64
2023/12/21 01:01:37;;;;;;;;;;;;;;;23.13;34.11;101231.28;4230922;28;19923;-64
2023/12/21 01:03:39;;;;;;;;;;;;;;;23.10;33.96;101228.00;4232046;28;20084;-63
2023/12/21 01:05:41;;;;;;;;;;;;;;;23.08;34.06;101221.91;4232734;28;19926;-64
2023/12/21 01:07:42;;;;;;;;;;;;;;;23.05;33.96;101225.69;4231762;28;19919;-64
2023/12/21 01:09:44;;;;;;;;;;;;;;;23.03;34.03;101230.31;4233065;28;19919;-64
2023/12/21 01:11:45;;;;;;;;;;;;;;;23.05;33.94;101232.88;4232926;28;19919;-63
2023/12/21 01:13:47;;;;;;;;;;;;;;;23.07;34.14;101233.63;4232810;28;19923;-64
2023/12/21 01:15:53;;;;;;;;;;;;;;;23.09;34.21;101219.09;4232866;28;19919;-64
2023/12/21 01:17:55;;;;;;;;;;;;;;;23.11;34.00;101210.91;4232356;28;20387;-63
2023/12/21 01:19:56;;;;;;;;;;;;;;;23.11;34.24;101222.50;4231517;28;19928;-64
2023/12/21 01:21:58;;;;;;;;;;;;;;;23.11;34.24;101217.16;4232910;28;19919;-64
2023/12/21 01:24:00;;;;;;;;;;;;;;;23.10;33.98;101207.38;4232699;28;19926;-64
2023/12/21 01:26:01;;;;;;;;;;;;;;;23.07;33.95;101196.06;4232588;28;20401;-64
2023/12/21 01:28:03;;;;;;;;;;;;;;;23.06;34.02;101203.25;4232877;27;19920;-63
2023/12/21 01:30:05;;;;;;;;;;;;;;;23.05;33.91;101192.63;4232547;28;19927;-63
2023/12/21 01:32:06;;;;;;;;;;;;;;;23.02;34.04;101188.38;4232626;28;19942;-63
2023/12/21 01:34:08;;;;;;;;;;;;;;;23.05;34.21;101184.59;4232317;28;20076;-64
2023/12/21 01:36:10;;;;;;;;;;;;;;;23.07;34.06;101188.00;4232401;28;20009;-63
2023/12/21 01:38:11;;;;;;;;;;;;;;;23.10;34.23;101180.56;4232573;28;20017;-63
2023/12/21 01:40:13;;;;;;;;;;;;;;;23.12;34.06;101188.47;4232573;27;19920;-63
2023/12/21 01:42:14;;;;;;;;;;;;;;;23.13;34.01;101187.50;4232433;28;19927;-64
2023/12/21 01:44:16;;;;;;;;;;;;;;;23.12;34.06;101181.31;4232533;28;19931;-64
2023/12/21 01:46:17;;;;;;;;;;;;;;;23.12;34.28;101178.63;4232435;28;19923;-64
2023/12/21 01:48:20;;;;;;;;;;;;;;;23.09;34.20;101178.84;4231945;27;19926;-64
2023/12/21 01:50:22;;;;;;;;;;;;;;;23.07;34.15;101167.38;4230926;28;19969;-63
2023/12/21 01:52:24;;;;;;;;;;;;;;;23.05;34.15;101165.81;4232436;28;20294;-64
2023/12/21 01:54:26;;;;;;;;;;;;;;;23.04;34.29;101167.66;4232000;28;19920;-64
2023/12/21 01:56:27;;;;;;;;;;;;;;;23.04;34.35;101154.22;4232309;28;19923;-64
2023/12/21 01:58:30;;;;;;;;;;;;;;;23.07;34.21;101143.25;4232252;28;19919;-64
2023/12/21 02:00:31;;;;;;;;;;;;;;;23.10;34.31;101142.16;4232146;28;19926;-64
2023/12/21 02:02:33;;;;;;;;;;;;;;;23.13;34.32;101141.88;4231913;28;19920;-64
2023/12/21 02:04:34;;;;;;;;;;;;;;;23.13;34.07;101147.25;4232063;28;20168;-63
2023/12/21 02:06:36;;;;;;;;;;;;;;;23.13;34.19;101141.88;4232112;28;19919;-63
2023/12/21 02:08:38;;;;;;;;;;;;;;;23.12;34.23;101118.72;4232009;28;20390;-64
2023/12/21 02:10:40;;;;;;;;;;;;;;;23.09;34.08;101125.19;4232082;28;19923;-64
2023/12/21 02:12:43;;;;;;;;;;;;;;;23.07;34.10;101119.09;4231871;28;19989;-64
2023/12/21 02:14:45;;;;;;;;;;;;;;;23.05;34.25;101131.81;4231583;28;19920;-63
2023/12/21 02:17:07;;;;;;;;;;;;;;;23.05;34.53;101120.19;4231455;28;19959;-63
2023/12/21 02:19:10;;;;;;;;;;;;;;;23.07;34.25;101119.09;4231555;28;20439;-64
2023/12/21 02:21:12;;;;;;;;;;;;;;;23.08;34.37;101118.13;4231720;28;19924;-63
2023/12/21 02:23:16;;;;;;;;;;;;;;;23.12;34.23;101108.84;4231661;28;19927;-64
2023/12/21 02:25:17;;;;;;;;;;;;;;;23.17;33.98;101102.28;4230399;28;19920;-64
2023/12/21 02:27:19;;;;;;;;;;;;;;;23.16;34.29;101100.53;4230578;28;19920;-64
2023/12/21 02:29:20;;;;;;;;;;;;;;;23.17;34.06;101107.66;4231804;28;19931;-64
2023/12/21 02:31:22;;;;;;;;;;;;;;;23.13;34.32;101104.31;4231388;28;20298;-63
2023/12/21 02:33:24;;;;;;;;;;;;;;;23.13;34.40;101107.84;4231389;28;19920;-63
2023/12/21 02:35:25;;;;;;;;;;;;;;;23.11;34.17;101117.00;4231571;28;19919;-65
2023/12/21 02:37:27;;;;;;;;;;;;;;;23.08;34.31;101119.97;4231256;28;19919;-64
2023/12/21 02:39:28;;;;;;;;;;;;;;;23.10;34.31;101116.16;4231622;27;19924;-63
2023/12/21 02:41:30;;;;;;;;;;;;;;;23.11;34.28;101100.91;4231548;28;20473;-63
2023/12/21 02:43:32;;;;;;;;;;;;;;;23.13;34.30;101107.00;4231456;28;19981;-63
2023/12/21 02:45:33;;;;;;;;;;;;;;;23.16;34.17;101105.91;4230807;28;19998;-63
2023/12/21 02:47:34;;;;;;;;;;;;;;;23.18;34.15;101098.63;4231275;28;19943;-64
2023/12/21 02:49:36;;;;;;;;;;;;;;;23.18;34.27;101103.97;4231477;28;20443;-64
2023/12/21 02:51:38;;;;;;;;;;;;;;;23.11;34.43;101096.41;4231274;28;20264;-64
2023/12/21 02:53:40;;;;;;;;;;;;;;;23.18;34.35;101103.97;4231132;28;19920;-63
2023/12/21 02:55:41;;;;;;;;;;;;;;;23.14;34.24;101093.47;4231114;28;20298;-63
2023/12/21 02:57:43;;;;;;;;;;;;;;;23.14;34.46;101101.50;4231116;28;19974;-63
2023/12/21 02:59:44;;;;;;;;;;;;;;;23.12;34.37;101087.41;4230972;28;19966;-63
2023/12/21 03:01:46;;;;;;;;;;;;;;;23.13;34.70;101086.38;4231270;28;20006;-63
2023/12/21 03:03:47;;;;;;;;;;;;;;;23.15;34.28;101083.59;4231292;28;19919;-63
2023/12/21 03:05:49;;;;;;;;;;;;;;;23.18;34.26;101095.94;4229729;28;19969;-62
2023/12/21 03:07:52;;;;;;;;;;;;;;;23.19;34.28;101082.38;4231087;28;19920;-63
2023/12/21 03:09:54;;;;;;;;;;;;;;;23.20;34.47;101084.09;4231129;28;19926;-64
2023/12/21 03:11:55;;;;;;;;;;;;;;;23.22;34.24;101089.31;4231045;28;19926;-64
2023/12/21 03:13:57;;;;;;;;;;;;;;;23.20;34.30;101080.56;4230728;28;19919;-63
2023/12/21 03:15:58;;;;;;;;;;;;;;;23.18;34.29;101083.34;4230884;28;19923;-63
2023/12/21 03:18:00;;;;;;;;;;;;;;;23.15;34.23;101078.22;4231001;28;19938;-64
2023/12/21 03:20:03;;;;;;;;;;;;;;;23.13;34.46;101072.97;4230968;28;20350;-64
2023/12/21 03:22:05;;;;;;;;;;;;;;;23.13;34.41;101074.81;4230722;28;19943;-64
2023/12/21 03:24:06;;;;;;;;;;;;;;;23.12;34.46;101073.97;4230701;28;19921;-64
2023/12/21 03:26:08;;;;;;;;;;;;;;;22.98;34.43;101029.50;4230292;28;19924;-64
2023/12/21 03:28:13;;;;;;;;;;;;;;;23.16;34.27;101053.09;4230773;28;19924;-63
2023/12/21 03:30:15;;;;;;;;;;;;;;;23.21;34.63;101047.38;4230399;28;19920;-63
2023/12/21 03:32:17;;;;;;;;;;;;;;;23.21;34.20;101040.19;4231059;28;19972;-64
2023/12/21 03:34:18;;;;;;;;;;;;;;;23.23;34.33;101042.72;4230781;28;20371;-64
2023/12/21 03:36:20;;;;;;;;;;;;;;;23.22;34.58;101044.56;4230843;28;19946;-63
2023/12/21 03:38:21;;;;;;;;;;;;;;;23.21;34.56;101050.03;4230752;28;19919;-64
2023/12/21 03:40:23;;;;;;;;;;;;;;;23.18;34.48;101044.97;4230700;28;20010;-64
2023/12/21 03:42:24;;;;;;;;;;;;;;;23.15;34.60;101035.31;4230586;28;19927;-63
2023/12/21 03:44:26;;;;;;;;;;;;;;;23.16;34.53;101041.50;4230397;28;19931;-64
2023/12/21 03:46:27;;;;;;;;;;;;;;;23.17;34.55;101044.09;4230739;28;19919;-64
2023/12/21 03:48:29;;;;;;;;;;;;;;;23.19;34.72;101039.44;4230702;28;20310;-64
2023/12/21 03:50:30;;;;;;;;;;;;;;;23.22;34.55;101030.28;4230812;28;19965;-63
2023/12/21 03:52:32;;;;;;;;;;;;;;;23.24;34.31;101031.84;4230804;28;19958;-63
2023/12/21 03:54:33;;;;;;;;;;;;;;;23.26;34.48;101016.50;4230371;28;20019;-64
2023/12/21 03:56:37;;;;;;;;;;;;;;;23.26;34.24;101016.50;4230436;28;19927;-64
2023/12/21 03:58:38;;;;;;;;;;;;;;;23.25;34.39;101011.25;4230259;28;19930;-64
2023/12/21 04:00:40;;;;;;;;;;;;;;;23.23;34.56;101007.84;4230666;28;19920;-64
2023/12/21 04:02:42;;;;;;;;;;;;;;;23.21;34.78;100982.97;4230680;28;19927;-63
2023/12/21 04:04:43;;;;;;;;;;;;;;;23.19;34.50;100967.00;4230324;28;19919;-64
2023/12/21 04:06:45;;;;;;;;;;;;;;;23.19;34.64;100967.00;4230664;28;20294;-64
2023/12/21 04:08:47;;;;;;;;;;;;;;;23.20;34.64;100949.09;4230567;28;20007;-64
2023/12/21 04:10:48;;;;;;;;;;;;;;;23.21;34.81;100937.34;4230376;28;20374;-64
2023/12/21 04:12:50;;;;;;;;;;;;;;;23.24;34.56;100937.09;4230038;28;19926;-64
2023/12/21 04:14:51;;;;;;;;;;;;;;;23.26;34.62;100938.66;4230567;28;20318;-63
2023/12/21 04:16:53;;;;;;;;;;;;;;;23.28;34.55;100933.16;4230630;28;19969;-64
2023/12/21 04:18:55;;;;;;;;;;;;;;;23.28;34.49;100933.16;4229075;28;20407;-64
2023/12/21 04:20:57;;;;;;;;;;;;;;;23.26;34.61;100945.88;4230434;28;19920;-64
2023/12/21 04:23:02;;;;;;;;;;;;;;;23.23;34.51;100946.13;4230183;28;19927;-64
2023/12/21 04:25:03;;;;;;;;;;;;;;;23.20;34.53;100952.63;4230102;28;19920;-63
2023/12/21 04:27:05;;;;;;;;;;;;;;;23.21;34.64;100948.94;4229870;28;19950;-64
2023/12/21 04:29:07;;;;;;;;;;;;;;;23.22;34.65;100947.09;4230469;28;19963;-64
2023/12/21 04:31:08;;;;;;;;;;;;;;;23.22;34.56;100942.59;4230377;28;19986;-63
2023/12/21 04:33:11;;;;;;;;;;;;;;;23.25;34.67;100936.97;4230066;28;19920;-64
2023/12/21 04:35:13;;;;;;;;;;;;;;;23.26;34.62;100930.63;4230258;28;19920;-64
2023/12/21 04:37:14;;;;;;;;;;;;;;;23.28;34.44;100935.84;4232167;28;20396;-64
2023/12/21 04:39:16;;;;;;;;;;;;;;;23.29;34.59;100935.72;4233306;28;19965;-64
2023/12/21 04:41:17;;;;;;;;;;;;;;;23.29;34.65;100929.50;4233050;28;19931;-64
2023/12/21 04:43:19;;;;;;;;;;;;;;;23.28;34.49;100941.22;4233302;28;19923;-64
2023/12/21 04:45:23;;;;;;;;;;;;;;;23.26;34.53;100930.63;4233084;28;19924;-64
2023/12/21 04:47:25;;;;;;;;;;;;;;;23.24;34.79;100923.69;4233117;28;19964;-64
2023/12/21 04:49:27;;;;;;;;;;;;;;;23.23;34.86;100922.84;4233324;28;19919;-63
2023/12/21 04:51:28;;;;;;;;;;;;;;;23.24;34.71;100918.31;4233544;27;20014;-64
2023/12/21 04:53:30;;;;;;;;;;;;;;;23.26;34.88;100925.25;4233176;28;19971;-64
2023/12/21 04:55:31;;;;;;;;;;;;;;;23.29;34.60;100918.75;4232818;28;19936;-64
2023/12/21 04:57:33;;;;;;;;;;;;;;;23.31;34.88;100932.91;4233278;28;19927;-64
2023/12/21 04:59:38;;;;;;;;;;;;;;;23.33;34.55;100932.75;4233361;28;19920;-64
2023/12/21 05:01:39;;;;;;;;;;;;;;;23.34;34.67;100931.78;4232987;28;19919;-63
2023/12/21 05:03:41;;;;;;;;;;;;;;;23.34;34.87;100921.88;4233170;28;19920;-64
2023/12/21 05:05:43;;;;;;;;;;;;;;;23.33;34.83;100908.63;4232897;28;19926;-64
2023/12/21 05:07:44;;;;;;;;;;;;;;;23.31;34.44;100907.88;4231709;28;19959;-64
2023/12/21 05:09:46;;;;;;;;;;;;;;;23.28;34.82;100900.97;4232765;28;19926;-64
2023/12/21 05:11:47;;;;;;;;;;;;;;;23.28;34.99;100904.50;4232331;28;19920;-64
2023/12/21 05:13:49;;;;;;;;;;;;;;;23.30;35.05;100899.00;4232761;28;19937;-63
2023/12/21 05:15:50;;;;;;;;;;;;;;;23.31;34.95;100892.66;4232803;28;20445;-64
2023/12/21 05:17:52;;;;;;;;;;;;;;;23.32;34.67;100897.03;4232658;28;19920;-63
2023/12/21 05:19:53;;;;;;;;;;;;;;;23.34;34.59;100902.25;4232677;27;19943;-64
2023/12/21 05:21:55;;;;;;;;;;;;;;;23.36;34.76;100900.31;4232627;28;19927;-64
2023/12/21 05:23:57;;;;;;;;;;;;;;;23.38;34.69;100903.69;4232759;28;19920;-64
2023/12/21 05:25:59;;;;;;;;;;;;;;;23.37;34.94;100899.34;4232242;28;19924;-63
2023/12/21 05:28:00;;;;;;;;;;;;;;;23.35;34.72;100898.59;4232644;28;19927;-63
2023/12/21 05:30:02;;;;;;;;;;;;;;;23.25;34.82;100877.09;4232550;28;19963;-63
2023/12/21 05:32:03;;;;;;;;;;;;;;;23.30;34.93;100888.25;4232543;28;19965;-63
2023/12/21 05:34:05;;;;;;;;;;;;;;;23.30;34.71;100888.25;4232577;28;19972;-63
2023/12/21 05:36:18;;;;;;;;;;;;;;;23.32;34.68;100901.53;4232497;28;19924;-61
2023/12/21 05:38:20;;;;;;;;;;;;;;;23.33;34.84;100904.13;4232361;28;19938;-63
2023/12/21 05:40:22;;;;;;;;;;;;;;;23.37;34.82;100910.06;4232164;28;19920;-63
2023/12/21 05:42:24;;;;;;;;;;;;;;;23.39;34.82;100906.25;4232198;28;19919;-63
2023/12/21 05:44:25;;;;;;;;;;;;;;;23.39;34.73;100898.22;4232064;28;19926;-63
2023/12/21 05:46:27;;;;;;;;;;;;;;;23.39;34.68;100886.59;4232447;27;20327;-63
2023/12/21 05:48:28;;;;;;;;;;;;;;;23.38;34.64;100877.72;4231517;28;19923;-62
2023/12/21 05:50:30;;;;;;;;;;;;;;;23.37;34.72;100875.19;4232240;28;20348;-62
2023/12/21 05:52:32;;;;;;;;;;;;;;;23.35;34.71;100853.81;4232426;28;19943;-63
2023/12/21 05:54:33;;;;;;;;;;;;;;;23.33;34.60;100850.44;4232186;28;19920;-63
2023/12/21 05:56:35;;;;;;;;;;;;;;;23.33;34.83;100845.06;4232054;28;19920;-63
2023/12/21 05:58:37;;;;;;;;;;;;;;;23.36;34.86;100841.25;4232197;28;20316;-65
2023/12/21 06:00:39;;;;;;;;;;;;;;;23.38;34.80;100839.28;4232133;28;19919;-63
2023/12/21 06:02:40;;;;;;;;;;;;;;;23.39;34.95;100836.47;4232113;28;19967;-63
2023/12/21 06:04:42;;;;;;;;;;;;;;;23.40;34.75;100834.63;4232137;28;19920;-63
2023/12/21 06:06:47;;;;;;;;;;;;;;;23.39;34.71;100825.75;4232152;28;19919;-64
2023/12/21 06:08:48;;;;;;;;;;;;;;;23.40;34.67;100834.63;4230438;28;19920;-64
2023/12/21 06:10:50;;;;;;;;;;;;;;;23.39;34.81;100832.94;4231921;28;19969;-64
2023/12/21 06:12:52;;;;;;;;;;;;;;;23.37;35.02;100838.44;4231957;28;20386;-64
2023/12/21 06:14:53;;;;;;;;;;;;;;;23.36;34.77;100835.91;4232005;28;19926;-64
2023/12/21 06:16:55;;;;;;;;;;;;;;;23.36;34.88;100846.63;4231993;28;19924;-64
2023/12/21 06:18:56;;;;;;;;;;;;;;;23.35;34.87;100842.25;4231742;28;20277;-64
2023/12/21 06:20:58;;;;;;;;;;;;;;;23.36;35.00;100831.38;4231527;28;19920;-64
2023/12/21 06:22:59;;;;;;;;;;;;;;;23.39;35.00;100816.81;4231635;28;19927;-63
2023/12/21 06:25:06;;;;;;;;;;;;;;;23.41;34.76;100837.16;4231444;28;19920;-64
2023/12/21 06:27:08;;;;;;;;;;;;;;;23.43;34.99;100854.00;4231764;28;19946;-64
2023/12/21 06:29:09;;;;;;;;;;;;;;;23.44;34.59;100858.38;4231799;28;19927;-64
2023/12/21 06:31:16;;;;;;;;;;;;;;;23.46;34.99;100855.56;4231527;28;20302;-64
2023/12/21 06:33:18;;;;;;;;;;;;;;;23.44;34.60;100852.19;4231721;28;20382;-64
2023/12/21 06:35:20;;;;;;;;;;;;;;;23.40;34.75;100866.84;4231497;28;19945;-64
2023/12/21 06:37:21;;;;;;;;;;;;;;;23.39;34.77;100870.50;4231219;28;20011;-64
2023/12/21 06:39:23;;;;;;;;;;;;;;;23.37;34.96;100865.28;4231367;28;20306;-64
2023/12/21 06:41:24;;;;;;;;;;;;;;;23.38;34.91;100869.66;4231379;28;20026;-64
2023/12/21 06:43:26;;;;;;;;;;;;;;;23.40;35.16;100859.66;4231465;28;19919;-64
2023/12/21 06:45:27;;;;;;;;;;;;;;;23.41;34.81;100849.75;4231207;28;19926;-64
2023/12/21 06:47:29;;;;;;;;;;;;;;;23.44;35.04;100858.38;4231280;28;19935;-63
2023/12/21 06:49:30;;;;;;;;;;;;;;;23.46;34.92;100850.19;4231265;28;20199;-64
2023/12/21 06:51:32;;;;;;;;;;;;;;;23.48;34.83;100847.41;4231016;28;20015;-64
2023/12/21 06:53:33;;;;;;;;;;;;;;;23.47;34.65;100859.09;4231104;27;19919;-64
2023/12/21 06:55:35;;;;;;;;;;;;;;;23.45;34.59;100860.09;4231104;28;19920;-64
2023/12/21 06:57:36;;;;;;;;;;;;;;;23.42;34.98;100862.19;4231365;28;19946;-64
2023/12/21 06:59:38;;;;;;;;;;;;;;;23.40;35.00;100867.69;4229611;28;19919;-64
2023/12/21 07:01:40;;;;;;;;;;;;;;;23.41;34.97;100861.31;4231185;28;19970;-64
2023/12/21 07:03:41;;;;;;;;;;;;;;;23.40;35.07;100846.22;4231048;28;19945;-64
2023/12/21 07:05:43;;;;;;;;;;;;;;;23.42;34.85;100848.78;4230969;28;19920;-64
2023/12/21 07:07:45;;;;;;;;;;;;;;;23.45;34.76;100854.72;4230661;28;20065;-64
2023/12/21 07:09:47;;;;;;;;;;;;;;;23.47;34.78;100876.06;4231001;28;19926;-64
2023/12/21 07:11:49;;;;;;;;;;;;;;;23.48;34.91;100885.81;4230792;28;20362;-64
2023/12/21 07:13:50;;;;;;;;;;;;;;;23.48;34.73;100876.91;4230952;28;19924;-63
2023/12/21 07:15:52;;;;;;;;;;;;;;;23.47;35.05;100876.06;4229578;28;20297;-64
2023/12/21 07:17:54;;;;;;;;;;;;;;;23.45;35.04;100881.56;4230976;28;20401;-64
2023/12/21 07:19:56;;;;;;;;;;;;;;;23.42;34.94;100867.56;4230920;28;20390;-64
2023/12/21 07:21:58;;;;;;;;;;;;;;;23.40;35.23;100867.69;4230473;28;19981;-62
2023/12/21 07:23:59;;;;;;;;;;;;;;;23.40;35.10;100862.34;4229566;28;19984;-64
2023/12/21 07:26:01;;;;;;;;;;;;;;;23.43;34.90;100861.22;4230695;28;19969;-63
2023/12/21 07:28:02;;;;;;;;;;;;;;;23.46;35.15;100858.25;4229636;28;19923;-63
2023/12/21 07:30:04;;;;;;;;;;;;;;;23.48;34.97;100864.34;4231006;28;19926;-62
2023/12/21 07:32:06;;;;;;;;;;;;;;;23.49;34.79;100873.22;4230861;28;19920;-63
2023/12/21 07:34:08;;;;;;;;;;;;;;;23.51;35.13;100872.09;4230782;28;19919;-64
2023/12/21 07:36:10;;;;;;;;;;;;;;;23.51;34.96;100879.31;4230424;28;19947;-64
2023/12/21 07:38:12;;;;;;;;;;;;;;;23.49;34.88;100863.34;4230699;28;19923;-64
2023/12/21 07:40:14;;;;;;;;;;;;;;;23.47;34.70;100859.09;4230812;28;19930;-63
2023/12/21 07:42:17;;;;;;;;;;;;;;;23.45;35.14;100860.09;4230551;28;20049;-64
2023/12/21 07:44:19;;;;;;;;;;;;;;;23.43;35.12;100850.47;4230712;28;20351;-63
2023/12/21 07:46:21;;;;;;;;;;;;;;;23.41;35.21;100853.28;4230590;28;19942;-64
2023/12/21 07:48:23;;;;;;;;;;;;;;;23.41;35.25;100839.00;4230771;28;19926;-64
2023/12/21 07:50:25;;;;;;;;;;;;;;;23.43;34.96;100854.00;4230348;28;20344;-64
2023/12/21 07:52:26;;;;;;;;;;;;;;;23.47;35.00;100851.06;4230691;28;19965;-64
2023/12/21 07:54:28;;;;;;;;;;;;;;;23.47;34.91;100845.69;4230490;28;19926;-64
2023/12/21 07:56:30;;;;;;;;;;;;;;;23.48;34.90;100847.41;4230730;28;19919;-63
2023/12/21 07:58:31;;;;;;;;;;;;;;;23.45;34.90;100835.94;4229354;28;20439;-64
2023/12/21 08:00:33;;;;;;;;;;;;;;;23.45;35.01;100840.44;4229350;28;19968;-64
2023/12/21 08:02:39;;;;;;;;;;;;;;;23.44;35.14;100847.66;4230583;28;19919;-64
2023/12/21 08:04:41;;;;;;;;;;;;;;;23.42;35.18;100846.09;4230254;28;19926;-64
2023/12/21 08:06:42;;;;;;;;;;;;;;;23.41;35.09;100839.84;4230571;28;19924;-64
2023/12/21 08:08:45;;;;;;;;;;;;;;;23.41;35.03;100829.13;4230416;28;20301;-63
2023/12/21 08:10:57;;;;;;;;;;;;;;;23.44;35.36;100842.28;4230600;28;19919;-64
2023/12/21 08:12:59;;;;;;;;;;;;;;;23.47;35.37;100830.41;4233952;28;20366;-64
2023/12/21 08:15:01;;;;;;;;;;;;;;;23.49;35.03;100801.63;4233948;28;20003;-63
2023/12/21 08:17:07;;;;;;;;;;;;;;;23.51;34.99;100802.31;4232819;28;19949;-64
2023/12/21 08:19:09;;;;;;;;;;;;;;;23.52;34.76;100803.16;4233387;28;20014;-64
2023/12/21 08:21:11;;;;;;;;;;;;;;;23.51;34.84;100806.84;4233614;28;19919;-63
2023/12/21 08:23:12;;;;;;;;;;;;;;;23.50;35.07;100815.88;4233615;28;20014;-64
2023/12/21 08:25:14;;;;;;;;;;;;;;;23.48;35.07;100801.75;4233543;28;19946;-64
2023/12/21 08:27:16;;;;;;;;;;;;;;;23.44;35.00;100790.44;4233840;28;19927;-64
2023/12/21 08:29:17;;;;;;;;;;;;;;;23.41;35.35;100801.44;4233796;28;19920;-64
2023/12/21 08:31:25;;;;;;;;;;;;;;;23.40;35.37;100807.78;4233756;28;19920;-64
2023/12/21 08:33:27;;;;;;;;;;;;;;;23.45;35.17;100800.16;4233356;28;19919;-63
2023/12/21 08:35:29;;;;;;;;;;;;;;;23.45;35.09;100800.16;4233381;28;20018;-64
2023/12/21 08:37:30;;;;;;;;;;;;;;;23.50;35.22;100791.72;4233640;28;19924;-63
2023/12/21 08:39:32;;;;;;;;;;;;;;;23.51;35.02;100794.25;4233441;28;20434;-63
2023/12/21 08:41:34;;;;;;;;;;;;;;;23.53;35.11;100791.44;4233588;28;19964;-60
2023/12/21 08:43:36;;;;;;;;;;;;;;;23.51;35.58;100804.16;4233611;28;19919;-60
2023/12/21 08:45:38;;;;;;;;;;;;;;;23.47;35.39;100808.94;4233581;28;20017;-59
2023/12/21 08:47:40;;;;;;;;;;;;;;;23.49;35.39;100811.47;4233200;28;19955;-59
2023/12/21 08:49:43;;;;;;;;;;;;;;;23.49;35.19;100812.34;4233401;28;19966;-62
2023/12/21 08:51:44;;;;;;;;;;;;;;;23.51;35.51;100831.84;4233513;28;19919;-61
2023/12/21 08:53:46;;;;;;;;;;;;;;;23.48;35.64;100824.06;4233333;28;20294;-64
2023/12/21 08:55:47;;;;;;;;;;;;;;;23.44;35.64;100831.53;4233461;28;19920;-62
2023/12/21 08:57:49;;;;;;;;;;;;;;;23.50;35.66;100830.16;4233255;27;19920;-62
2023/12/21 08:59:51;;;;;;;;;;;;;;;23.53;35.41;100839.78;4233101;28;19923;-62
2023/12/21 09:01:56;;;;;;;;;;;;;;;23.56;35.18;100845.72;4232723;27;19920;-62
2023/12/21 09:03:58;;;;;;;;;;;;;;;23.56;35.42;100840.34;4233186;28;19955;-61
2023/12/21 09:06:00;;;;;;;;;;;;;;;23.57;35.59;100835.81;4233083;28;19919;-61
2023/12/21 09:08:01;;;;;;;;;;;;;;;23.54;35.34;100839.63;4239617;27;19958;-61
2023/12/21 09:10:03;;;;;;;;;;;;;;;23.52;35.43;100835.38;4250209;27;19973;-61
2023/12/21 09:12:05;;;;;;;;;;;;;;;23.35;36.16;100826.97;4250179;27;19967;-62
2023/12/21 09:14:07;;;;;;;;;;;;;;;23.19;36.42;100835.53;4250137;27;19919;-60
2023/12/21 09:16:08;;;;;;;;;;;;;;;22.99;37.06;100821.16;4228141;27;19919;-61
2023/12/21 09:18:10;;;;;;;;;;;;;;;22.86;37.14;100816.00;4232657;28;19976;-61
2023/12/21 09:20:13;;;;;;;;;;;;;;;22.79;37.45;100815.66;4231571;27;19924;-60
2023/12/21 09:22:14;;;;;;;;;;;;;;;22.64;37.86;100809.78;4232884;28;20360;-62
2023/12/21 09:24:16;;;;;;;;;;;;;;;22.56;38.13;100814.94;4231690;28;20025;-61
2023/12/21 09:26:18;;;;;;;;;;;;;;;22.60;37.88;100819.09;4232677;28;19920;-61
2023/12/21 09:28:19;;;;;;;;;;;;;;;22.57;37.95;100822.00;4232999;28;20290;-62
2023/12/21 09:30:25;;;;;;;;;;;;;;;22.58;38.11;100813.00;4231424;28;20348;-60
2023/12/21 09:32:27;;;;;;;;;;;;;;;22.49;38.36;100819.13;4231556;28;19965;-60
2023/12/21 09:34:28;;;;;;;;;;;;;;;22.44;38.47;100814.19;4232642;28;19919;-63
2023/12/21 09:36:31;;;;;;;;;;;;;;;22.41;38.43;100813.59;4232371;28;19923;-62
2023/12/21 09:38:32;;;;;;;;;;;;;;;22.36;38.65;100808.59;4227278;28;19946;-63
2023/12/21 09:40:34;;;;;;;;;;;;;;;22.33;38.65;100830.25;4228448;27;20018;-64
2023/12/21 09:42:41;;;;;;;;;;;;;;;22.34;38.40;100813.22;4227588;28;19943;-63
2023/12/21 09:44:46;;;;;;;;;;;;;;;22.43;38.19;100788.34;4230247;28;19930;-63
2023/12/21 09:46:48;;;;;;;;;;;;;;;22.40;38.40;100799.31;4232123;28;20289;-63
2023/12/21 09:48:50;;;;;;;;;;;;;;;22.41;38.37;100792.16;4232586;28;19923;-63
2023/12/21 09:50:51;;;;;;;;;;;;;;;22.28;38.42;100808.38;4232558;27;19926;-62
2023/12/21 09:52:53;;;;;;;;;;;;;;;22.24;38.52;100805.09;4231270;28;20036;-63
2023/12/21 09:54:55;;;;;;;;;;;;;;;22.27;38.50;100791.47;4232198;28;20022;-62
2023/12/21 09:56:58;;;;;;;;;;;;;;;22.26;38.43;100796.91;4232396;28;19919;-63
2023/12/21 09:59:01;;;;;;;;;;;;;;;22.26;38.50;100800.47;4230989;28;19920;-63
2023/12/21 10:01:02;;;;;;;;;;;;;;;22.30;38.18;100806.41;4232054;28;19923;-62
2023/12/21 10:03:05;;;;;;;;;;;;;;;22.30;38.25;100814.47;4232294;28;19931;-62
2023/12/21 10:05:07;;;;;;;;;;;;;;;22.36;38.19;100819.31;4232155;28;19920;-63
2023/12/21 10:07:12;;;;;;;;;;;;;;;22.37;38.14;100804.94;4232172;28;19919;-63
2023/12/21 10:09:15;;;;;;;;;;;;;;;22.45;37.78;100805.13;4232222;28;19920;-64
2023/12/21 10:11:18;;;;;;;;;;;;;;;22.43;37.99;100800.88;4232173;28;20421;-63
2023/12/21 10:13:20;;;;;;;;;;;;;;;22.41;37.89;100793.00;4232109;28;19972;-63
2023/12/21 10:15:21;;;;;;;;;;;;;;;22.38;38.15;100798.59;4231690;28;19955;-63
2023/12/21 10:17:23;;;;;;;;;;;;;;;22.37;38.20;100799.56;4232104;28;20386;-63
2023/12/21 10:19:25;;;;;;;;;;;;;;;22.35;38.48;100804.19;4231892;28;20002;-63
2023/12/21 10:21:27;;;;;;;;;;;;;;;22.36;38.25;100792.50;4231995;28;20351;-63
2023/12/21 10:23:28;;;;;;;;;;;;;;;22.40;38.14;100803.84;4231969;28;19929;-63
2023/12/21 10:25:30;;;;;;;;;;;;;;;22.42;38.26;100793.81;4231687;28;20350;-63